Etusivu
METAR-TAF:

METAR-TAF

Lentoasemat :

Lake Charles, Louisiana, Yhdysvallat

Leveyspiiri: 30-13N, Pituuspiiri: 093-09W, korkeus merenpinnasta: 4 m

Tämänhetkinen sää

Tämä raportti tehtiin 39 minuuttia sitten, kello 05.15 UTC
Tuuli 8 kn etelästä
Lämpötila 24°C
Kosteus 89%
Ilmanpaine 1016 hPa
Näkyvyys: 11.3 km
Hajonneita pilviä 1100 ft:n korkeudessa
Hajonneita pilviä 2000 ft:n korkeudessa
Pilvistä 2500 ft:n korkeudessa

METAR: KCWF 190515Z AUTO 18008KT 7SM BKN011 BKN020 OVC025 24/22 A3001 RMK AO2 T02370218

Aika: 00:54 (05:54 UTC)


TAF: puuttuu

Säähavainnot ja -ennusteet yli 4000 lentoasemalta (METAR- ja TAF-raportit).

Käytössä olevat sääasemat on merkitty karttaan keltaisilla ja punaisilla pisteillä.

Aseta hiiri pisteen päälle nähdäksesi sääaseman nimen.

Klikkaa sitten nähdäksesi säähavainnot ja -ennusteet.

Kartan vaihtaminen: klikkaa mustalla rastilla varustettuja vihreitä pisteitä, niin voit zoomata sisään; viivalla varustettua vihreää pistettä, niin voit zoomata ulos tai vihreitä nuolia, niin pääset viereisille kartoille.


METAR-TAF: